sensor_id;sensor_type;location;lat;lon;timestamp;pressure;altitude;pressure_sealevel;temperature;humidity
20145;BME280;10233;50.814;6.590;2022-09-01T00:00:46;100598.97;;;17.37;100.00
20145;BME280;10233;50.814;6.590;2022-09-01T00:01:52;100599.91;;;17.31;100.00
20145;BME280;10233;50.814;6.590;2022-09-01T00:02:52;100596.66;;;17.29;100.00
20145;BME280;10233;50.814;6.590;2022-09-01T00:03:54;100602.47;;;17.26;100.00
20145;BME280;10233;50.814;6.590;2022-09-01T00:04:55;100595.97;;;17.22;100.00
20145;BME280;10233;50.814;6.590;2022-09-01T00:05:57;100598.06;;;17.20;100.00
20145;BME280;10233;50.814;6.590;2022-09-01T00:06:58;100599.34;;;17.29;100.00
20145;BME280;10233;50.814;6.590;2022-09-01T00:07:59;100596.66;;;17.29;100.00
20145;BME280;10233;50.814;6.590;2022-09-01T00:09:08;100596.41;;;17.31;100.00
20145;BME280;10233;50.814;6.590;2022-09-01T00:10:09;100593.72;;;17.31;100.00
20145;BME280;10233;50.814;6.590;2022-09-01T00:11:09;100592.09;;;17.30;100.00
20145;BME280;10233;50.814;6.590;2022-09-01T00:12:10;100597.72;;;17.28;100.00
20145;BME280;10233;50.814;6.590;2022-09-01T00:13:10;100598.88;;;17.21;100.00
20145;BME280;10233;50.814;6.590;2022-09-01T00:14:12;100597.72;;;17.28;100.00
20145;BME280;10233;50.814;6.590;2022-09-01T00:15:13;100593.28;;;17.34;100.00
20145;BME280;10233;50.814;6.590;2022-09-01T00:16:15;100597.59;;;17.23;100.00
20145;BME280;10233;50.814;6.590;2022-09-01T00:17:17;100598.78;;;17.16;100.00
20145;BME280;10233;50.814;6.590;2022-09-01T00:18:17;100596.78;;;17.11;100.00
20145;BME280;10233;50.814;6.590;2022-09-01T00:19:18;100601.25;;;17.06;100.00
20145;BME280;10233;50.814;6.590;2022-09-01T00:20:19;100595.53;;;17.02;100.00
20145;BME280;10233;50.814;6.590;2022-09-01T00:21:23;100599.72;;;16.98;100.00
20145;BME280;10233;50.814;6.590;2022-09-01T00:22:24;100595.75;;;16.89;100.00
20145;BME280;10233;50.814;6.590;2022-09-01T00:23:26;100596.44;;;16.96;100.00
20145;BME280;10233;50.814;6.590;2022-09-01T00:24:27;100598.78;;;17.04;100.00
20145;BME280;10233;50.814;6.590;2022-09-01T00:25:28;100602.75;;;17.02;100.00
20145;BME280;10233;50.814;6.590;2022-09-01T00:26:29;100599.63;;;17.05;100.00
20145;BME280;10233;50.814;6.590;2022-09-01T00:27:29;100599.63;;;17.05;100.00
20145;BME280;10233;50.814;6.590;2022-09-01T00:28:34;100599.00;;;16.91;100.00
20145;BME280;10233;50.814;6.590;2022-09-01T00:29:35;100600.19;;;16.84;100.00
20145;BME280;10233;50.814;6.590;2022-09-01T00:30:35;100601.59;;;16.86;100.00
20145;BME280;10233;50.814;6.590;2022-09-01T00:31:37;100603.47;;;16.86;100.00
20145;BME280;10233;50.814;6.590;2022-09-01T00:32:38;100598.78;;;16.81;100.00
20145;BME280;10233;50.814;6.590;2022-09-01T00:33:38;100599.00;;;16.80;100.00
20145;BME280;10233;50.814;6.590;2022-09-01T00:34:39;100595.53;;;16.79;100.00
20145;BME280;10233;50.814;6.590;2022-09-01T00:35:39;100599.84;;;16.80;100.00
20145;BME280;10233;50.814;6.590;2022-09-01T00:36:40;100604.16;;;16.81;100.00
20145;BME280;10233;50.814;6.590;2022-09-01T00:37:41;100597.72;;;16.82;100.00
20145;BME280;10233;50.814;6.590;2022-09-01T00:38:42;100594.69;;;16.79;100.00
20145;BME280;10233;50.814;6.590;2022-09-01T00:39:43;100603.81;;;16.78;100.00
20145;BME280;10233;50.814;6.590;2022-09-01T00:40:43;100601.34;;;16.76;100.00
20145;BME280;10233;50.814;6.590;2022-09-01T00:41:44;100609.19;;;16.78;100.00
20145;BME280;10233;50.814;6.590;2022-09-01T00:42:46;100608.00;;;16.74;100.00
20145;BME280;10233;50.814;6.590;2022-09-01T00:43:53;100603.91;;;16.71;100.00
20145;BME280;10233;50.814;6.590;2022-09-01T00:44:55;100605.81;;;16.71;100.00
20145;BME280;10233;50.814;6.590;2022-09-01T00:45:55;100606.84;;;16.70;100.00
20145;BME280;10233;50.814;6.590;2022-09-01T00:46:57;100601.13;;;16.66;100.00
20145;BME280;10233;50.814;6.590;2022-09-01T00:47:58;100598.66;;;16.65;100.00
20145;BME280;10233;50.814;6.590;2022-09-01T00:50:04;100603.22;;;16.64;100.00
20145;BME280;10233;50.814;6.590;2022-09-01T00:50:32;100608.59;;;16.64;100.00
20145;BME280;10233;50.814;6.590;2022-09-01T00:51:36;100597.50;;;16.61;100.00
20145;BME280;10233;50.814;6.590;2022-09-01T00:52:47;100607.88;;;16.57;100.00
20145;BME280;10233;50.814;6.590;2022-09-01T00:53:50;100604.97;;;16.59;100.00
20145;BME280;10233;50.814;6.590;2022-09-01T00:54:53;100597.97;;;16.58;100.00
20145;BME280;10233;50.814;6.590;2022-09-01T00:55:57;100602.75;;;16.56;100.00
20145;BME280;10233;50.814;6.590;2022-09-01T00:56:58;100603.78;;;16.55;100.00
20145;BME280;10233;50.814;6.590;2022-09-01T00:58:00;100601.09;;;16.55;100.00
20145;BME280;10233;50.814;6.590;2022-09-01T00:59:04;100598.63;;;16.53;100.00
20145;BME280;10233;50.814;6.590;2022-09-01T01:00:14;100593.88;;;16.55;100.00
20145;BME280;10233;50.814;6.590;2022-09-01T01:01:15;100600.06;;;16.56;100.00
20145;BME280;10233;50.814;6.590;2022-09-01T01:02:15;100600.06;;;16.56;100.00
20145;BME280;10233;50.814;6.590;2022-09-01T01:03:16;100601.09;;;16.55;100.00
20145;BME280;10233;50.814;6.590;2022-09-01T01:04:16;100592.25;;;16.54;100.00
20145;BME280;10233;50.814;6.590;2022-09-01T01:05:17;100593.28;;;16.53;100.00
20145;BME280;10233;50.814;6.590;2022-09-01T01:06:18;100599.47;;;16.54;100.00
20145;BME280;10233;50.814;6.590;2022-09-01T01:07:23;100593.03;;;16.55;100.00
20145;BME280;10233;50.814;6.590;2022-09-01T01:08:27;100596.78;;;16.54;100.00
20145;BME280;10233;50.814;6.590;2022-09-01T01:09:35;100599.25;;;16.55;100.00
20145;BME280;10233;50.814;6.590;2022-09-01T01:10:39;100596.56;;;16.55;100.00
20145;BME280;10233;50.814;6.590;2022-09-01T01:11:40;100597.63;;;16.54;100.00
20145;BME280;10233;50.814;6.590;2022-09-01T01:12:44;100597.84;;;16.53;100.00
20145;BME280;10233;50.814;6.590;2022-09-01T01:14:04;100604.25;;;16.52;100.00
20145;BME280;10233;50.814;6.590;2022-09-01T01:15:13;100601.81;;;16.50;100.00
20145;BME280;10233;50.814;6.590;2022-09-01T01:16:14;100599.56;;;16.47;100.00
20145;BME280;10233;50.814;6.590;2022-09-01T01:17:17;100603.44;;;16.51;100.00
20145;BME280;10233;50.814;6.590;2022-09-01T01:18:17;100606.56;;;16.48;100.00
20145;BME280;10233;50.814;6.590;2022-09-01T01:20:44;100601.41;;;16.35;100.00
20145;BME280;10233;50.814;6.590;2022-09-01T01:22:08;100599.38;;;16.31;100.00
20145;BME280;10233;50.814;6.590;2022-09-01T01:23:44;100598.47;;;16.25;100.00
20145;BME280;10233;50.814;6.590;2022-09-01T01:24:50;100595.44;;;16.22;100.00
20145;BME280;10233;50.814;6.590;2022-09-01T01:25:58;100592.13;;;16.20;100.00
20145;BME280;10233;50.814;6.590;2022-09-01T01:27:01;100595.44;;;16.22;100.00
20145;BME280;10233;50.814;6.590;2022-09-01T01:28:22;100598.91;;;16.22;100.00
20145;BME280;10233;50.814;6.590;2022-09-01T01:29:31;100596.09;;;16.17;100.00
20145;BME280;10233;50.814;6.590;2022-09-01T01:30:33;100599.84;;;16.16;100.00
20145;BME280;10233;50.814;6.590;2022-09-01T01:31:34;100599.84;;;16.16;100.00
20145;BME280;10233;50.814;6.590;2022-09-01T01:32:36;100596.94;;;16.18;100.00
20145;BME280;10233;50.814;6.590;2022-09-01T01:33:44;100594.03;;;16.19;100.00
20145;BME280;10233;50.814;6.590;2022-09-01T01:34:46;100598.91;;;16.22;100.00
20145;BME280;10233;50.814;6.590;2022-09-01T01:35:48;100593.53;;;16.22;100.00
20145;BME280;10233;50.814;6.590;2022-09-01T01:36:51;100596.84;;;16.24;100.00
20145;BME280;10233;50.814;6.590;2022-09-01T01:37:52;100590.84;;;16.22;100.00
20145;BME280;10233;50.814;6.590;2022-09-01T01:38:54;100590.06;;;16.22;100.00
20145;BME280;10233;50.814;6.590;2022-09-01T01:40:04;100590.41;;;16.25;100.00
20145;BME280;10233;50.814;6.590;2022-09-01T01:41:04;100596.84;;;16.24;100.00
20145;BME280;10233;50.814;6.590;2022-09-01T01:42:06;100589.34;;;16.26;100.00
20145;BME280;10233;50.814;6.590;2022-09-01T01:43:09;100587.72;;;16.25;100.00
20145;BME280;10233;50.814;6.590;2022-09-01T01:44:17;100588.78;;;16.24;100.00
20145;BME280;10233;50.814;6.590;2022-09-01T01:45:21;100594.72;;;16.26;100.00
20145;BME280;10233;50.814;6.590;2022-09-01T01:46:22;100596.34;;;16.27;100.00
20145;BME280;10233;50.814;6.590;2022-09-01T01:47:25;100590.97;;;16.27;100.00
20145;BME280;10233;50.814;6.590;2022-09-01T01:48:26;100596.13;;;16.29;100.00
20145;BME280;10233;50.814;6.590;2022-09-01T01:49:27;100595.06;;;16.30;100.00
20145;BME280;10233;50.814;6.590;2022-09-01T01:50:31;100594.63;;;16.33;100.00
20145;BME280;10233;50.814;6.590;2022-09-01T01:51:35;100594.16;;;16.36;100.00
20145;BME280;10233;50.814;6.590;2022-09-01T01:52:36;100602.81;;;16.38;100.00
20145;BME280;10233;50.814;6.590;2022-09-01T01:53:37;100605.28;;;16.39;100.00
20145;BME280;10233;50.814;6.590;2022-09-01T01:54:38;100606.94;;;16.40;100.00
20145;BME280;10233;50.814;6.590;2022-09-01T01:55:39;100598.66;;;16.42;100.00
20145;BME280;10233;50.814;6.590;2022-09-01T01:56:41;100604.25;;;16.40;100.00
20145;BME280;10233;50.814;6.590;2022-09-01T01:57:41;100601.75;;;16.39;100.00
20145;BME280;10233;50.814;6.590;2022-09-01T01:58:48;100601.75;;;16.39;100.00
20145;BME280;10233;50.814;6.590;2022-09-01T01:59:49;100602.34;;;16.41;100.00
20145;BME280;10233;50.814;6.590;2022-09-01T02:00:52;100592.88;;;16.38;100.00
20145;BME280;10233;50.814;6.590;2022-09-01T02:01:56;100607.34;;;16.37;100.00
20145;BME280;10233;50.814;6.590;2022-09-01T02:02:57;100604.53;;;16.32;100.00
20145;BME280;10233;50.814;6.590;2022-09-01T02:03:59;100605.69;;;16.25;100.00
20145;BME280;10233;50.814;6.590;2022-09-01T02:04:59;100602.66;;;16.21;100.00
20145;BME280;10233;50.814;6.590;2022-09-01T02:06:00;100597.72;;;16.18;100.00
20145;BME280;10233;50.814;6.590;2022-09-01T02:07:11;100597.59;;;16.13;100.00
20145;BME280;10233;50.814;6.590;2022-09-01T02:08:13;100606.34;;;16.09;100.00
20145;BME280;10233;50.814;6.590;2022-09-01T02:09:17;100602.03;;;16.08;100.00
20145;BME280;10233;50.814;6.590;2022-09-01T02:10:18;100604.09;;;16.06;100.00
20145;BME280;10233;50.814;6.590;2022-09-01T02:11:19;100606.91;;;16.11;100.00
20145;BME280;10233;50.814;6.590;2022-09-01T02:12:20;100605.06;;;16.11;100.00
20145;BME280;10233;50.814;6.590;2022-09-01T02:13:24;100604.47;;;16.09;100.00
20145;BME280;10233;50.814;6.590;2022-09-01T02:14:27;100608.41;;;16.07;100.00
20145;BME280;10233;50.814;6.590;2022-09-01T02:15:29;100607.63;;;16.06;100.00
20145;BME280;10233;50.814;6.590;2022-09-01T02:16:35;100605.38;;;16.03;100.00
20145;BME280;10233;50.814;6.590;2022-09-01T02:17:37;100608.28;;;16.02;100.00
20145;BME280;10233;50.814;6.590;2022-09-01T02:18:42;100596.78;;;16.13;100.00
20145;BME280;10233;50.814;6.590;2022-09-01T02:19:47;100608.53;;;16.12;100.00
20145;BME280;10233;50.814;6.590;2022-09-01T02:20:50;100606.22;;;16.04;100.00
20145;BME280;10233;50.814;6.590;2022-09-01T02:21:51;100599.66;;;16.00;100.00
20145;BME280;10233;50.814;6.590;2022-09-01T02:22:55;100599.31;;;15.96;100.00
20145;BME280;10233;50.814;6.590;2022-09-01T02:24:04;100600.34;;;15.95;100.00
20145;BME280;10233;50.814;6.590;2022-09-01T02:25:05;100603.84;;;15.96;100.00
20145;BME280;10233;50.814;6.590;2022-09-01T02:26:07;100601.38;;;15.94;100.00
20145;BME280;10233;50.814;6.590;2022-09-01T02:27:10;100598.13;;;15.92;100.00
20145;BME280;10233;50.814;6.590;2022-09-01T02:28:12;100606.16;;;15.92;100.00
20145;BME280;10233;50.814;6.590;2022-09-01T02:29:21;100604.97;;;15.88;100.00
20145;BME280;10233;50.814;6.590;2022-09-01T02:30:22;100606.38;;;15.91;100.00
20145;BME280;10233;50.814;6.590;2022-09-01T02:31:24;100599.59;;;15.88;100.00
20145;BME280;10233;50.814;6.590;2022-09-01T02:32:25;100601.25;;;15.89;100.00
20145;BME280;10233;50.814;6.590;2022-09-01T02:33:26;100600.22;;;15.90;100.00
20145;BME280;10233;50.814;6.590;2022-09-01T02:34:27;100605.09;;;15.93;100.00
20145;BME280;10233;50.814;6.590;2022-09-01T02:35:28;100605.47;;;15.97;100.00
20145;BME280;10233;50.814;6.590;2022-09-01T02:36:33;100598.13;;;15.92;100.00
20145;BME280;10233;50.814;6.590;2022-09-01T02:37:38;100597.28;;;15.92;100.00
20145;BME280;10233;50.814;6.590;2022-09-01T02:38:39;100595.28;;;15.87;100.00
20145;BME280;10233;50.814;6.590;2022-09-01T02:39:43;100598.69;;;15.83;100.00
20145;BME280;10233;50.814;6.590;2022-09-01T02:40:46;100595.25;;;15.76;100.00
20145;BME280;10233;50.814;6.590;2022-09-01T02:41:48;100594.88;;;15.72;100.00
20145;BME280;10233;50.814;6.590;2022-09-01T02:42:49;100596.16;;;15.70;100.00
20145;BME280;10233;50.814;6.590;2022-09-01T02:43:52;100593.91;;;15.67;100.00
20145;BME280;10233;50.814;6.590;2022-09-01T02:44:54;100592.50;;;15.64;100.00
20145;BME280;10233;50.814;6.590;2022-09-01T02:45:57;100599.34;;;15.60;100.00
20145;BME280;10233;50.814;6.590;2022-09-01T02:46:59;100601.47;;;15.58;100.00
20145;BME280;10233;50.814;6.590;2022-09-01T02:48:01;100596.31;;;15.57;100.00
20145;BME280;10233;50.814;6.590;2022-09-01T02:49:03;100595.50;;;15.56;100.00
20145;BME280;10233;50.814;6.590;2022-09-01T02:50:04;100599.22;;;15.55;100.00
20145;BME280;10233;50.814;6.590;2022-09-01T02:51:10;100599.69;;;15.52;100.00
20145;BME280;10233;50.814;6.590;2022-09-01T02:52:11;100599.06;;;15.50;100.00
20145;BME280;10233;50.814;6.590;2022-09-01T02:53:15;100600.94;;;15.50;100.00
20145;BME280;10233;50.814;6.590;2022-09-01T02:54:19;100601.75;;;15.50;100.00
20145;BME280;10233;50.814;6.590;2022-09-01T02:55:22;100602.44;;;15.46;100.00
20145;BME280;10233;50.814;6.590;2022-09-01T02:56:23;100602.06;;;15.42;100.00
20145;BME280;10233;50.814;6.590;2022-09-01T02:57:24;100595.09;;;15.41;100.00
20145;BME280;10233;50.814;6.590;2022-09-01T02:58:25;100603.03;;;15.48;100.00
20145;BME280;10233;50.814;6.590;2022-09-01T02:59:27;100592.69;;;15.33;100.00
20145;BME280;10233;50.814;6.590;2022-09-01T03:00:33;100594.44;;;15.21;100.00
20145;BME280;10233;50.814;6.590;2022-09-01T03:01:38;100598.53;;;15.06;100.00
20145;BME280;10233;50.814;6.590;2022-09-01T03:02:39;100586.41;;;15.03;100.00
20145;BME280;10233;50.814;6.590;2022-09-01T03:03:39;100588.63;;;15.06;100.00
20145;BME280;10233;50.814;6.590;2022-09-01T03:04:40;100593.56;;;14.85;100.00
20145;BME280;10233;50.814;6.590;2022-09-01T03:05:42;100590.59;;;14.75;100.00
20145;BME280;10233;50.814;6.590;2022-09-01T03:06:44;100594.97;;;14.69;100.00
20145;BME280;10233;50.814;6.590;2022-09-01T03:07:47;100595.16;;;14.74;100.00
20145;BME280;10233;50.814;6.590;2022-09-01T03:08:47;100598.31;;;14.65;100.00
20145;BME280;10233;50.814;6.590;2022-09-01T03:09:48;100589.94;;;14.55;100.00
20145;BME280;10233;50.814;6.590;2022-09-01T03:10:52;100594.75;;;14.46;100.00
20145;BME280;10233;50.814;6.590;2022-09-01T03:11:54;100591.97;;;14.35;100.00
20145;BME280;10233;50.814;6.590;2022-09-01T03:12:59;100595.47;;;14.35;100.00
20145;BME280;10233;50.814;6.590;2022-09-01T03:14:00;100593.25;;;14.26;100.00
20145;BME280;10233;50.814;6.590;2022-09-01T03:15:02;100595.56;;;14.22;100.00
20145;BME280;10233;50.814;6.590;2022-09-01T03:16:05;100598.03;;;14.17;100.00
20145;BME280;10233;50.814;6.590;2022-09-01T03:17:06;100600.66;;;14.30;100.00
20145;BME280;10233;50.814;6.590;2022-09-01T03:18:10;100602.72;;;14.28;100.00
20145;BME280;10233;50.814;6.590;2022-09-01T03:19:11;100598.03;;;14.17;100.00
20145;BME280;10233;50.814;6.590;2022-09-01T03:20:15;100596.44;;;14.10;100.00
20145;BME280;10233;50.814;6.590;2022-09-01T03:21:16;100595.59;;;14.09;100.00
20145;BME280;10233;50.814;6.590;2022-09-01T03:22:17;100595.00;;;14.07;100.00
20145;BME280;10233;50.814;6.590;2022-09-01T03:23:19;100595.22;;;14.06;100.00
20145;BME280;10233;50.814;6.590;2022-09-01T03:24:21;100597.47;;;14.09;100.00
20145;BME280;10233;50.814;6.590;2022-09-01T03:25:23;100595.41;;;14.11;100.00
20145;BME280;10233;50.814;6.590;2022-09-01T03:26:25;100598.91;;;14.11;100.00
20145;BME280;10233;50.814;6.590;2022-09-01T03:27:27;100595.56;;;14.22;100.00
20145;BME280;10233;50.814;6.590;2022-09-01T03:28:28;100599.06;;;14.16;100.00
20145;BME280;10233;50.814;6.590;2022-09-01T03:29:29;100596.41;;;14.16;100.00
20145;BME280;10233;50.814;6.590;2022-09-01T03:30:32;100594.13;;;14.20;100.00
20145;BME280;10233;50.814;6.590;2022-09-01T03:31:34;100588.91;;;14.31;100.00
20145;BME280;10233;50.814;6.590;2022-09-01T03:32:35;100592.63;;;14.30;100.00
20145;BME280;10233;50.814;6.590;2022-09-01T03:33:36;100588.31;;;14.29;100.00
20145;BME280;10233;50.814;6.590;2022-09-01T03:34:38;100592.81;;;14.35;100.00
20145;BME280;10233;50.814;6.590;2022-09-01T03:35:39;100593.38;;;14.37;100.00
20145;BME280;10233;50.814;6.590;2022-09-01T03:36:40;100596.84;;;14.44;100.00
20145;BME280;10233;50.814;6.590;2022-09-01T03:37:50;100593.28;;;14.50;100.00
20145;BME280;10233;50.814;6.590;2022-09-01T03:38:52;100589.19;;;14.48;100.00
20145;BME280;10233;50.814;6.590;2022-09-01T03:39:54;100594.75;;;14.46;100.00
20145;BME280;10233;50.814;6.590;2022-09-01T03:40:58;100591.72;;;14.43;100.00
20145;BME280;10233;50.814;6.590;2022-09-01T03:42:01;100591.50;;;14.44;100.00
20145;BME280;10233;50.814;6.590;2022-09-01T03:43:04;100593.13;;;14.45;100.00
20145;BME280;10233;50.814;6.590;2022-09-01T03:44:05;100592.50;;;14.43;100.00
20145;BME280;10233;50.814;6.590;2022-09-01T03:45:07;100591.91;;;14.41;100.00
20145;BME280;10233;50.814;6.590;2022-09-01T03:46:10;100588.66;;;14.39;100.00
20145;BME280;10233;50.814;6.590;2022-09-01T03:47:10;100591.16;;;14.34;100.00
20145;BME280;10233;50.814;6.590;2022-09-01T03:48:14;100590.16;;;14.29;100.00
20145;BME280;10233;50.814;6.590;2022-09-01T03:49:15;100591.16;;;14.34;100.00
20145;BME280;10233;50.814;6.590;2022-09-01T03:50:18;100592.00;;;14.28;100.00
20145;BME280;10233;50.814;6.590;2022-09-01T03:51:22;100590.00;;;14.24;100.00
20145;BME280;10233;50.814;6.590;2022-09-01T03:52:22;100595.56;;;14.22;100.00
20145;BME280;10233;50.814;6.590;2022-09-01T03:53:24;100600.53;;;14.12;100.00
20145;BME280;10233;50.814;6.590;2022-09-01T03:54:30;100597.09;;;14.05;100.00
20145;BME280;10233;50.814;6.590;2022-09-01T03:55:34;100589.88;;;14.06;100.00
20145;BME280;10233;50.814;6.590;2022-09-01T03:56:37;100596.06;;;14.06;100.00
20145;BME280;10233;50.814;6.590;2022-09-01T03:57:41;100590.75;;;14.00;100.00
20145;BME280;10233;50.814;6.590;2022-09-01T03:58:42;100595.91;;;13.95;100.00
20145;BME280;10233;50.814;6.590;2022-09-01T03:59:47;100595.56;;;13.85;100.00
20145;BME280;10233;50.814;6.590;2022-09-01T04:00:54;100596.00;;;13.75;100.00
20145;BME280;10233;50.814;6.590;2022-09-01T04:01:55;100599.16;;;13.66;100.00
20145;BME280;10233;50.814;6.590;2022-09-01T04:02:58;100585.63;;;13.61;100.00
20145;BME280;10233;50.814;6.590;2022-09-01T04:04:00;100589.16;;;13.55;100.00
20145;BME280;10233;50.814;6.590;2022-09-01T04:05:04;100594.09;;;13.51;100.00
20145;BME280;10233;50.814;6.590;2022-09-01T04:06:08;100583.63;;;13.50;100.00
20145;BME280;10233;50.814;6.590;2022-09-01T04:07:09;100593.69;;;13.48;100.00
20145;BME280;10233;50.814;6.590;2022-09-01T04:08:11;100593.47;;;13.49;100.00
20145;BME280;10233;50.814;6.590;2022-09-01T04:09:13;100590.38;;;13.52;100.00
20145;BME280;10233;50.814;6.590;2022-09-01T04:10:17;100594.28;;;13.56;100.00
20145;BME280;10233;50.814;6.590;2022-09-01T04:11:18;100591.63;;;13.56;100.00
20145;BME280;10233;50.814;6.590;2022-09-01T04:12:24;100593.25;;;13.57;100.00
20145;BME280;10233;50.814;6.590;2022-09-01T04:13:28;100589.34;;;13.53;100.00
20145;BME280;10233;50.814;6.590;2022-09-01T04:14:30;100592.22;;;13.52;100.00
20145;BME280;10233;50.814;6.590;2022-09-01T04:15:30;100586.88;;;13.52;100.00
20145;BME280;10233;50.814;6.590;2022-09-01T04:16:34;100586.09;;;13.51;100.00
20145;BME280;10233;50.814;6.590;2022-09-01T04:17:53;100589.00;;;13.43;100.00
20145;BME280;10233;50.814;6.590;2022-09-01T04:19:15;100592.53;;;13.31;100.00
20145;BME280;10233;50.814;6.590;2022-09-01T04:20:20;100590.47;;;13.26;100.00
20145;BME280;10233;50.814;6.590;2022-09-01T04:21:22;100592.34;;;13.19;100.00
20145;BME280;10233;50.814;6.590;2022-09-01T04:22:23;100590.53;;;13.13;100.00
20145;BME280;10233;50.814;6.590;2022-09-01T04:23:30;100592.81;;;13.03;100.00
20145;BME280;10233;50.814;6.590;2022-09-01T04:24:40;100591.97;;;13.09;100.00
20145;BME280;10233;50.814;6.590;2022-09-01T04:25:46;100591.31;;;13.20;100.00
20145;BME280;10233;50.814;6.590;2022-09-01T04:26:50;100595.47;;;13.03;100.00
20145;BME280;10233;50.814;6.590;2022-09-01T04:27:53;100591.59;;;12.99;100.00
20145;BME280;10233;50.814;6.590;2022-09-01T04:28:57;100600.00;;;12.96;100.00
20145;BME280;10233;50.814;6.590;2022-09-01T04:29:58;100603.28;;;12.85;100.00
20145;BME280;10233;50.814;6.590;2022-09-01T04:31:05;100603.31;;;12.98;100.00
20145;BME280;10233;50.814;6.590;2022-09-01T04:32:09;100598.34;;;12.95;100.00
20145;BME280;10233;50.814;6.590;2022-09-01T04:33:14;100608.41;;;12.93;100.00
20145;BME280;10233;50.814;6.590;2022-09-01T04:34:16;100608.22;;;12.75;100.00
20145;BME280;10233;50.814;6.590;2022-09-01T04:35:17;100603.28;;;12.85;100.00
20145;BME280;10233;50.814;6.590;2022-09-01T04:36:22;100610.06;;;12.81;100.00
20145;BME280;10233;50.814;6.590;2022-09-01T04:37:24;100604.72;;;12.75;100.00
20145;BME280;10233;50.814;6.590;2022-09-01T04:38:29;100609.66;;;12.65;100.00
20145;BME280;10233;50.814;6.590;2022-09-01T04:39:30;100604.94;;;12.67;100.00
20145;BME280;10233;50.814;6.590;2022-09-01T04:40:31;100607.41;;;12.62;100.00
20145;BME280;10233;50.814;6.590;2022-09-01T04:41:32;100605.16;;;12.72;100.00
20145;BME280;10233;50.814;6.590;2022-09-01T04:42:36;100608.22;;;12.62;100.00
20145;BME280;10233;50.814;6.590;2022-09-01T04:43:37;100606.38;;;12.63;100.00
20145;BME280;10233;50.814;6.590;2022-09-01T04:44:38;100612.75;;;12.62;100.00
20145;BME280;10233;50.814;6.590;2022-09-01T04:45:39;100611.09;;;12.67;100.00
20145;BME280;10233;50.814;6.590;2022-09-01T04:46:41;100609.06;;;12.76;100.00
20145;BME280;10233;50.814;6.590;2022-09-01T04:47:45;100612.94;;;12.73;100.00
20145;BME280;10233;50.814;6.590;2022-09-01T04:48:51;100606.59;;;12.74;100.00
20145;BME280;10233;50.814;6.590;2022-09-01T04:49:53;100614.38;;;12.69;100.00
20145;BME280;10233;50.814;6.590;2022-09-01T04:50:59;100611.09;;;12.67;100.00
20145;BME280;10233;50.814;6.590;2022-09-01T04:52:04;100612.31;;;12.71;100.00
20145;BME280;10233;50.814;6.590;2022-09-01T04:53:05;100610.88;;;12.69;100.00
20145;BME280;10233;50.814;6.590;2022-09-01T04:54:11;100614.38;;;12.69;100.00
20145;BME280;10233;50.814;6.590;2022-09-01T04:55:14;100606.38;;;12.69;100.00
20145;BME280;10233;50.814;6.590;2022-09-01T04:56:19;100606.97;;;12.71;100.00
20145;BME280;10233;50.814;6.590;2022-09-01T04:57:31;100608.63;;;12.72;100.00
20145;BME280;10233;50.814;6.590;2022-09-01T04:58:32;100606.97;;;12.78;100.00
20145;BME280;10233;50.814;6.590;2022-09-01T04:59:33;100609.03;;;12.82;100.00
20145;BME280;10233;50.814;6.590;2022-09-01T05:00:34;100612.31;;;12.91;100.00
20145;BME280;10233;50.814;6.590;2022-09-01T05:01:35;100604.94;;;12.99;100.00
20145;BME280;10233;50.814;6.590;2022-09-01T05:02:43;100603.06;;;13.06;100.00
20145;BME280;10233;50.814;6.590;2022-09-01T05:03:46;100598.97;;;13.04;100.00
20145;BME280;10233;50.814;6.590;2022-09-01T05:05:12;100598.16;;;13.03;100.00
20145;BME280;10233;50.814;6.590;2022-09-01T05:06:16;100601.22;;;13.00;100.00
20145;BME280;10233;50.814;6.590;2022-09-01T05:07:22;100608.19;;;13.08;100.00
20145;BME280;10233;50.814;6.590;2022-09-01T05:08:23;100611.50;;;13.03;100.00
20145;BME280;10233;50.814;6.590;2022-09-01T05:09:24;100607.16;;;13.09;100.00
20145;BME280;10233;50.814;6.590;2022-09-01T05:10:48;100604.50;;;13.09;100.00
20145;BME280;10233;50.814;6.590;2022-09-01T05:11:53;100602.84;;;13.14;100.00
20145;BME280;10233;50.814;6.590;2022-09-01T05:12:56;100606.94;;;13.17;100.00
20145;BME280;10233;50.814;6.590;2022-09-01T05:13:57;100607.34;;;13.20;100.00
20145;BME280;10233;50.814;6.590;2022-09-01T05:14:58;100615.16;;;13.22;100.00
20145;BME280;10233;50.814;6.590;2022-09-01T05:16:01;100612.66;;;13.27;100.00
20145;BME280;10233;50.814;6.590;2022-09-01T05:17:03;100609.53;;;13.36;100.00
20145;BME280;10233;50.814;6.590;2022-09-01T05:18:09;100608.72;;;13.42;100.00
20145;BME280;10233;50.814;6.590;2022-09-01T05:19:10;100614.66;;;13.44;100.00
20145;BME280;10233;50.814;6.590;2022-09-01T05:20:14;100606.81;;;13.56;100.00
20145;BME280;10233;50.814;6.590;2022-09-01T05:21:18;100610.50;;;13.61;100.00
20145;BME280;10233;50.814;6.590;2022-09-01T05:22:19;100608.25;;;13.58;100.00
20145;BME280;10233;50.814;6.590;2022-09-01T05:23:41;100619.31;;;13.62;100.00
20145;BME280;10233;50.814;6.590;2022-09-01T05:24:42;100608.41;;;13.63;100.00
20145;BME280;10233;50.814;6.590;2022-09-01T05:25:50;100615.84;;;13.61;100.00
20145;BME280;10233;50.814;6.590;2022-09-01T05:26:53;100610.50;;;13.61;100.00
20145;BME280;10233;50.814;6.590;2022-09-01T05:27:54;100606.13;;;13.67;100.00
20145;BME280;10233;50.814;6.590;2022-09-01T05:29:00;100604.28;;;13.67;100.00